• Join FlightAware (Why Join?)
  • Login
  • US Flag 
11:31AM EDT


 

Airport Tracker/Info


-or-


 

Live Flight TrackerFlight Track Log ✈ N400DR ✈ 10-Nov-2013 ✈ KCMH - KFMY

Flight Track Log - Related Links

Times and Time Zones

All times are in EST time to prevent confusion due to time zone crossing. See the N400DR flight status page for this flight to view local times or setup timezone preferences in your user account.

Time Position Orientation Groundspeed Altitude Reporting Facility
EST Latitude Longitude Course Direction KTS MPH feet Rate Location/Type
07:56AM 39.9925 -82.9003 228° Southwest 107 123 1,200  Level Indianapolis Center
07:56AM 39.9875 -82.9075 228° Southwest 120 138 1,400 1,140 Climbing Indianapolis Center
07:57AM 39.9517 -82.8883 158° South 156 180 2,600 1,020 Climbing Indianapolis Center
07:58AM 39.9331 -82.8675 139° Southeast 150 173 3,200 1,080 Climbing Indianapolis Center
07:58AM 39.9147 -82.8578 158° South 163 188 3,700 1,260 Climbing Indianapolis Center
07:59AM 39.8842 -82.8542 175° South 153 176 4,500 1,080 Climbing Indianapolis Center
07:59AM 39.8733 -82.8511 168° South 150 173 4,800 1,140 Climbing Indianapolis Center
08:00AM 39.8422 -82.8447 171° South 153 176 5,700 1,200 Climbing Indianapolis Center
08:00AM 39.8319 -82.8447 180° South 152 175 6,000 960 Climbing Indianapolis Center
08:01AM 39.8000 -82.8364 169° South 152 175 6,700 960 Climbing Indianapolis Center
08:02AM 39.7544 -82.8264 170° South 161 185 7,700 960 Climbing Indianapolis Center
08:03AM 39.7089 -82.8172 171° South 164 189 8,700 900 Climbing Indianapolis Center
08:04AM 39.6644 -82.8094 172° South 163 188 9,600 840 Climbing Indianapolis Center
08:05AM 39.6186 -82.8003 171° South 165 190 10,500 840 Climbing Indianapolis Center
08:06AM 39.5717 -82.7908 171° South 170 196 11,400 720 Climbing Indianapolis Center
08:07AM 39.5225 -82.7811 171° South 176 203 12,000 240 Climbing Indianapolis Center
08:08AM 39.4656 -82.7689 171° South 200 230 12,000  Level Indianapolis Center
08:09AM 39.4069 -82.7575 171° South 211 243 12,000  Level Indianapolis Center
08:10AM 39.3514 -82.7461 171° South 206 237 12,000  Level Indianapolis Center
08:11AM 39.2969 -82.7344 171° South 201 231 12,000  Level Indianapolis Center
08:12AM 39.2411 -82.7236 171° South 201 231 12,000  Level Indianapolis Center
08:13AM 39.1742 -82.7089 170° South 204 235 12,100  Climbing Indianapolis Center
08:14AM 39.1275 -82.7003 172° South 203 234 12,100  Level Indianapolis Center
08:15AM 39.0689 -82.6886 171° South 211 243 12,100  Level Indianapolis Center
08:16AM 38.9997 -82.6750 171° South 209 241 12,100  Level Indianapolis Center
08:17AM 38.9431 -82.6628 170° South 207 238 12,100 -60 Level Indianapolis Center
08:18AM 38.8847 -82.6511 171° South 210 242 12,000 -60 Descending Indianapolis Center
08:19AM 38.8278 -82.6400 171° South 208 239 12,000  Level Indianapolis Center
08:20AM 38.7706 -82.6286 171° South 206 237 12,000  Level Indianapolis Center
08:21AM 38.7144 -82.6181 172° South 203 234 12,000  Level Indianapolis Center
08:22AM 38.6592 -82.6064 171° South 202 232 12,000  Level Indianapolis Center
08:23AM 38.5992 -82.5961 172° South 200 230 12,000  Level Indianapolis Center
08:24AM 38.5442 -82.5844 171° South 200 230 12,000  Level Indianapolis Center
08:25AM 38.4881 -82.5719 170° South 204 235 12,000  Level Indianapolis Center
08:26AM 38.4333 -82.5625 172° South 199 229 12,000  Level Indianapolis Center
08:27AM 38.3783 -82.5517 171° South 198 228 12,000  Level Indianapolis Center
08:28AM 38.3228 -82.5411 172° South 201 231 12,000  Level Indianapolis Center
08:29AM 38.2678 -82.5297 171° South 200 230 12,000  Level Indianapolis Center
08:30AM 38.2128 -82.5186 171° South 199 229 12,000  Level Indianapolis Center
08:31AM 38.1569 -82.5086 172° South 202 232 12,000  Level Indianapolis Center
08:32AM 38.0917 -82.4953 171° South 203 234 12,000  Level Indianapolis Center
08:33AM 38.0361 -82.4853 172° South 202 232 12,000  Level Indianapolis Center
08:34AM 37.9806 -82.4756 172° South 203 234 12,000  Level Indianapolis Center
08:35AM 37.9236 -82.4644 171° South 205 236 12,000  Level Indianapolis Center
08:36AM 37.8686 -82.4542 172° South 202 232 12,100  Climbing Indianapolis Center
08:37AM 37.8119 -82.4417 170° South 205 236 12,000 -60 Descending Indianapolis Center
08:38AM 37.7556 -82.4308 171° South 204 235 12,000  Level Indianapolis Center
08:39AM 37.7000 -82.4206 172° South 200 230 12,000  Level Indianapolis Center
08:40AM 37.6433 -82.4097 171° South 204 235 12,000  Level Indianapolis Center
08:41AM 37.5869 -82.4000 172° South 203 234 12,000  Level Indianapolis Center
08:42AM 37.5292 -82.3886 171° South 208 239 12,000  Level Indianapolis Center
08:44AM 37.4619 -82.3758 171° South 208 239 12,000  Level Indianapolis Center
08:45AM 37.4039 -82.3647 171° South 209 241 12,000  Level Indianapolis Center
08:46AM 37.3453 -82.3531 171° South 211 243 12,100  Climbing Indianapolis Center
08:47AM 37.2869 -82.3425 172° South 211 243 12,000 -60 Descending Indianapolis Center
08:48AM 37.2283 -82.3306 171° South 212 244 12,000  Level Indianapolis Center
08:49AM 37.1697 -82.3200 172° South 212 244 12,000  Level Indianapolis Center
08:50AM 37.1100 -82.3089 172° South 214 246 12,000  Level Indianapolis Center
08:51AM 37.0514 -82.2978 171° South 213 245 12,100  Climbing Indianapolis Center
08:52AM 36.9944 -82.2869 171° South 207 238 12,000 -60 Descending Indianapolis Center
08:53AM 36.9364 -82.2769 172° South 209 241 12,000  Level Indianapolis Center
08:54AM 36.8789 -82.2656 171° South 208 239 12,000  Level Indianapolis Center
08:55AM 36.8217 -82.2544 171° South 207 238 12,000  Level Indianapolis Center
08:56AM 36.7556 -82.2428 172° South 205 236 12,000  Level Indianapolis Center
08:57AM 36.6986 -82.2322 172° South 206 237 12,000  Level Indianapolis Center
08:58AM 36.6425 -82.2214 171° South 205 236 12,000  Level Indianapolis Center
08:59AM 36.5858 -82.2111 172° South 204 235 12,100  Climbing Indianapolis Center
09:00AM 36.5292 -82.2006 171° South 205 236 12,100  Level Indianapolis Center
09:01AM 36.4725 -82.1894 171° South 204 235 12,100  Level Indianapolis Center
09:02AM 36.4158 -82.1797 172° South 206 237 12,100  Level Indianapolis Center
09:03AM 36.3486 -82.1672 171° South 205 236 12,100  Level Atlanta Center
09:04AM 36.2919 -82.1583 173° South 199 229 12,100  Level Atlanta Center
09:05AM 36.2378 -82.1492 172° South 199 229 12,100  Level Atlanta Center
09:06AM 36.1833 -82.1378 170° South 199 229 12,100 -60 Level Atlanta Center
09:07AM 36.1289 -82.1261 170° South 199 229 12,000  Descending Atlanta Center
09:08AM 36.0767 -82.1169 172° South 199 229 12,100  Climbing Atlanta Center
09:09AM 36.0222 -82.1081 172° South 199 229 12,100  Level Atlanta Center
09:10AM 35.9678 -82.0967 170° South 199 229 12,100  Level Atlanta Center
09:11AM 35.9156 -82.0875 172° South 199 229 12,100  Level Atlanta Center
09:12AM 35.8611 -82.0761 170° South 199 229 12,100  Level Atlanta Center
09:13AM 35.8067 -82.0697 175° South 199 229 12,100 -60 Level Atlanta Center
09:14AM 35.7567 -82.0606 172° South 199 229 12,000 -60 Descending Atlanta Center
09:15AM 35.7064 -82.0492 170° South 193 222 12,000 -60 Level Atlanta Center
09:16AM 35.6561 -82.0428 174° South 193 222 11,900  Descending Atlanta Center
09:17AM 35.6039 -82.0311 170° South 188 216 12,000  Climbing Atlanta Center
09:18AM 35.5556 -82.0222 171° South 188 216 12,000 -60 Level Atlanta Center
09:19AM 35.4992 -82.0133 173° South 188 216 11,900 -60 Descending Atlanta Center
09:20AM 35.4489 -82.0069 174° South 198 228 11,900  Level Atlanta Center
09:21AM 35.3944 -81.9903 166° South 198 228 12,000  Climbing Atlanta Center
09:22AM 35.3442 -81.9839 174° South 193 222 12,000  Level Atlanta Center
09:23AM 35.2942 -81.9775 174° South 193 222 12,000  Level Atlanta Center
09:24AM 35.2439 -81.9661 170° South 188 216 12,000  Level Atlanta Center
09:25AM 35.1914 -81.9547 170° South 188 216 12,000  Level Atlanta Center
09:26AM 35.1414 -81.9561 181° South 188 216 12,000  Level Atlanta Center
09:27AM 35.0872 -81.9547 179° South 188 216 12,000  Level Atlanta Center
09:28AM 35.0369 -81.9511 177° South 188 216 12,000  Level Atlanta Center
09:29AM 34.9828 -81.9550 183° South 194 223 12,000  Level Atlanta Center
09:30AM 34.9306 -81.9564 181° South 194 223 12,000  Level Atlanta Center
09:31AM 34.8786 -81.9575 181° South 194 223 12,000  Level Atlanta Center
09:32AM 34.8242 -81.9539 177° South 194 223 12,000  Level Atlanta Center
09:33AM 34.7719 -81.9525 179° South 194 223 12,000  Level Atlanta Center
09:34AM 34.7200 -81.9564 184° South 194 223 12,000  Level Atlanta Center
09:35AM 34.6656 -81.9578 181° South 194 223 12,000  Level Atlanta Center
09:36AM 34.6136 -81.9567 179° South 194 223 12,000  Level Atlanta Center
09:37AM 34.5592 -81.9578 181° South 194 223 12,000  Level Atlanta Center
09:38AM 34.5092 -81.9567 179° South 194 223 12,000  Level Atlanta Center
09:39AM 34.4569 -81.9553 179° South 194 223 12,000  Level Atlanta Center
09:40AM 34.4047 -81.9542 179° South 194 223 12,000  Level Atlanta Center
09:41AM 34.3483 -81.9556 181° South 194 223 12,000  Level Atlanta Center
09:42AM 34.2942 -81.9544 179° South 194 223 12,000  Level Atlanta Center
09:43AM 34.2442 -81.9556 181° South 194 223 12,000  Level Atlanta Center
09:44AM 34.1897 -81.9569 181° South 194 223 12,000  Level Atlanta Center
09:45AM 34.1378 -81.9558 179° South 194 223 12,000  Level Atlanta Center
09:46AM 34.0875 -81.9569 181° South 194 223 12,000  Level Atlanta Center
09:47AM 34.0353 -81.9558 179° South 194 223 12,000  Level Atlanta Center
09:48AM 33.9811 -81.9569 181° South 194 223 12,000  Level Atlanta Center
09:49AM 33.9289 -81.9583 181° South 194 223 12,000  Level Atlanta Center
09:50AM 33.8767 -81.9569 179° South 194 223 12,000  Level Atlanta Center
09:51AM 33.8225 -81.9583 181° South 194 223 12,000  Level Atlanta Center
09:52AM 33.7725 -81.9569 179° South 194 223 12,000  Level Atlanta Center
09:53AM 33.7203 -81.9583 181° South 194 223 12,000  Level Atlanta Center
09:54AM 33.6681 -81.9572 179° South 194 223 12,000  Level Atlanta Center
09:55AM 33.6158 -81.9558 179° South 194 223 12,000  Level Atlanta Center
09:56AM 33.5636 -81.9572 181° South 194 223 12,000  Level Atlanta Center
09:57AM 33.5136 -81.9583 181° South 194 223 12,000  Level Atlanta Center
09:59AM 33.4072 -81.9594 180° South 197 227 12,000  Level Jacksonville Center
10:00AM 33.3531 -81.9600 180° South 197 227 12,000  Level Jacksonville Center
10:01AM 33.3028 -81.9631 183° South 197 227 12,000  Level Jacksonville Center
10:02AM 33.2508 -81.9611 178° South 197 227 12,000  Level Jacksonville Center
10:03AM 33.2047 -81.9617 181° South 197 227 12,000  Level Jacksonville Center
10:04AM 33.1525 -81.9597 178° South 197 227 12,000  Level Jacksonville Center
10:05AM 33.1025 -81.9603 181° South 192 221 12,000  Level Jacksonville Center
10:06AM 33.0503 -81.9608 181° South 192 221 12,000  Level Jacksonville Center
10:07AM 32.9981 -81.9614 181° South 187 215 12,000  Level Jacksonville Center
10:08AM 32.9500 -81.9617 180° South 187 215 12,000  Level Jacksonville Center
10:09AM 32.8981 -81.9622 181° South 187 215 12,000  Level Jacksonville Center
10:10AM 32.8478 -81.9628 181° South 187 215 12,000  Level Jacksonville Center
10:11AM 32.7956 -81.9633 181° South 187 215 12,000  Level Jacksonville Center
10:12AM 32.7456 -81.9639 181° South 187 215 12,000  Level Jacksonville Center
10:13AM 32.6933 -81.9644 181° South 187 215 12,000  Level Jacksonville Center
10:14AM 32.6369 -81.9650 180° South 187 215 12,000  Level Jacksonville Center
10:15AM 32.5847 -81.9656 181° South 182 209 12,000  Level Jacksonville Center
10:16AM 32.5369 -81.9636 178° South 182 209 12,000  Level Jacksonville Center
10:17AM 32.4806 -81.9667 183° South 192 221 12,000  Level Jacksonville Center
10:18AM 32.4325 -81.9647 178° South 199 229 12,000  Level Jacksonville Center
10:19AM 32.3719 -81.9653 180° South 193 222 12,000  Level Jacksonville Center
10:20AM 32.3197 -81.9658 181° South 198 228 12,000  Level Jacksonville Center
10:21AM 32.2739 -81.9664 181° South 198 228 12,000  Level Jacksonville Center
10:22AM 32.2153 -81.9669 180° South 198 228 12,000  Level Jacksonville Center
10:23AM 32.1672 -81.9672 180° South 198 228 12,000  Level Jacksonville Center
10:24AM 32.1111 -81.9678 180° South 193 222 12,000  Level Jacksonville Center
10:25AM 32.0589 -81.9683 181° South 193 222 12,000  Level Jacksonville Center
10:26AM 32.0128 -81.9664 178° South 193 222 12,000  Level Jacksonville Center
10:27AM 31.9544 -81.9669 180° South 193 222 12,000  Level Jacksonville Center
10:28AM 31.9044 -81.9747 188° South 198 228 12,000  Level Jacksonville Center
10:29AM 31.8542 -81.9778 183° South 192 221 12,000  Level Jacksonville Center
10:30AM 31.8022 -81.9856 187° South 192 221 12,000  Level Jacksonville Center
10:31AM 31.7561 -81.9908 186° South 192 221 12,000  Level Jacksonville Center
10:32AM 31.6978 -81.9939 183° South 197 227 12,000  Level Jacksonville Center
10:33AM 31.6456 -81.9994 185° South 197 227 12,000  Level Jacksonville Center
10:34AM 31.5997 -82.0022 183° South 197 227 12,000  Level Jacksonville Center
10:35AM 31.5414 -82.0100 186° South 197 227 12,000  Level Jacksonville Center
10:36AM 31.4892 -82.0156 185° South 191 220 12,000 -60 Level Jacksonville Center
10:37AM 31.4350 -82.0208 185° South 196 226 11,900 -60 Descending Jacksonville Center
10:38AM 31.3847 -82.0239 183° South 186 214 11,900  Level Jacksonville Center
10:39AM 31.3347 -82.0292 185° South 191 220 11,900  Level Jacksonville Center
10:40AM 31.2806 -82.0344 185° South 191 220 11,900  Level Jacksonville Center
10:41AM 31.2303 -82.0372 183° South 191 220 11,900 60 Level Jacksonville Center
10:41AM 31.2283 -82.0372 180° South 187 215 12,000  Climbing Jacksonville Center
10:42AM 31.1783 -82.0428 185° South 191 220 11,900  Descending Jacksonville Center
10:42AM 31.1761 -82.0428 180° South 185 213 12,000 60 Climbing Jacksonville Center
10:43AM 31.1281 -82.0481 185° South 191 220 12,000  Level Jacksonville Center
10:43AM 31.1136 -82.0481 180° South 182 209 12,000  Level Jacksonville Center
10:44AM 31.0758 -82.0533 187° South 191 220 12,000  Level Jacksonville Center
10:44AM 31.0717 -82.0533 180° South 184 212 12,000  Level Jacksonville Center
10:45AM 31.0239 -82.0561 183° South 191 220 12,000  Level Jacksonville Center
10:45AM 31.0133 -82.0564 181° South 186 214 12,000  Level Jacksonville Center
10:46AM 30.9736 -82.0614 186° South 191 220 12,000  Level Jacksonville Center
10:46AM 30.9633 -82.0617 181° South 183 211 12,000  Level Jacksonville Center
10:47AM 30.9236 -82.0667 186° South 186 214 12,000  Level Jacksonville Center
10:47AM 30.9047 -82.0694 187° South 183 211 12,000  Level Jacksonville Center
10:48AM 30.8736 -82.0697 180° South 186 214 12,000  Level Jacksonville Center
10:48AM 30.8589 -82.0722 188° South 180 207 12,000  Level Jacksonville Center
10:49AM 30.8214 -82.0750 184° South 181 208 12,000  Level Jacksonville Center
10:49AM 30.8047 -82.0775 187° South 183 211 12,000  Level Jacksonville Center
10:50AM 30.7733 -82.0803 184° South 181 208 12,000  Level Jacksonville Center
10:50AM 30.7567 -82.0828 187° South 183 211 12,000  Level Jacksonville Center
10:51AM 30.7211 -82.0856 184° South 181 208 12,000  Level Jacksonville Center
10:51AM 30.6983 -82.0881 185° South 183 211 12,000  Level Jacksonville Center
10:53AM 30.6481 -82.0908 183° South 184 212 12,000  Level Jacksonville Center
10:54AM 30.5961 -82.0986 187° South 184 212 12,000  Level Jacksonville Center
10:55AM 30.5417 -82.1014 183° South 184 212 12,000  Level Jacksonville Center
10:55AM 30.5083 -82.1042 184° South 182 209 12,000  Level Jacksonville Center
10:56AM 30.4478 -82.1094 184° South 180 207 12,000 -60 Level Jacksonville Center
10:58AM 30.3914 -82.1147 185° South 180 207 11,900 -360 Descending Jacksonville Center
10:58AM 30.3497 -82.1197 186° South 189 217 11,400 -600 Descending Jacksonville Center
10:59AM 30.2872 -82.1181 179° South 206 237 10,800 -600 Descending Jacksonville Center
11:00AM 30.2308 -82.1183 180° South 207 238 10,200 -600 Descending Jacksonville Center
11:01AM 30.1786 -82.1214 183° South 206 237 9,700 -600 Descending Jacksonville Center
11:03AM 30.1158 -82.1242 182° South 205 236 9,000 -360 Descending Jacksonville Center
11:03AM 30.0658 -82.1197 176° South 195 224 9,000  Level Jacksonville Center
11:05AM 30.0033 -82.1228 182° South 184 212 9,000  Level Jacksonville Center
11:06AM 29.9469 -82.1231 180° South 183 211 9,000  Level Jacksonville Center
11:07AM 29.8967 -82.1211 178° South 185 213 9,000  Level Jacksonville Center
11:08AM 29.8425 -82.1217 181° South 186 214 9,000  Level Jacksonville Center
11:09AM 29.7903 -82.1219 180° South 185 213 9,000  Level Jacksonville Center
11:10AM 29.7381 -82.1247 183° South 184 212 9,000  Level Jacksonville Center
11:11AM 29.6881 -82.1228 178° South 184 212 9,000  Level Jacksonville Center
11:12AM 29.6400 -82.1256 183° South 184 212 9,000  Level Jacksonville Center
11:13AM 29.5878 -82.1236 178° South 181 208 9,000  Level Jacksonville Center
11:14AM 29.5417 -82.1119 168° South 179 206 9,000  Level Jacksonville Center
11:15AM 29.4997 -82.0814 148° Southeast 185 213 9,000  Level Jacksonville Center
11:16AM 29.4517 -82.0483 149° Southeast 184 212 9,000  Level Jacksonville Center
11:17AM 29.4036 -82.0533 185° South 175 201 9,000  Level Jacksonville Center
11:18AM 29.3536 -82.0564 183° South 174 200 9,000  Level Jacksonville Center
11:19AM 29.3056 -82.0614 185° South 174 200 9,000  Level Jacksonville Center
11:20AM 29.2575 -82.0667 185° South 176 203 9,000  Level Jacksonville Center
11:21AM 29.2117 -82.0717 185° South 176 203 9,000  Level Jacksonville Center
11:22AM 29.1617 -82.0794 188° South 176 203 9,000  Level Jacksonville Center
11:23AM 29.1053 -82.0822 182° South 176 203 9,000  Level Jacksonville Center
11:24AM 29.0553 -82.0897 187° South 175 201 9,000  Level Jacksonville Center
11:25AM 29.0011 -82.0950 185° South 172 198 9,000  Level Jacksonville Center
11:26AM 28.9553 -82.1025 188° South 171 197 9,000  Level Jacksonville Center
11:27AM 28.9050 -82.1053 183° South 175 201 9,000  Level Jacksonville Center
11:28AM 28.8572 -82.1128 188° South 175 201 9,000  Level Jacksonville Center
11:29AM 28.8092 -82.1153 183° South 177 204 9,000  Level Jacksonville Center
11:30AM 28.7550 -82.1253 189° South 178 205 9,000  Level Jacksonville Center
11:32AM 28.6667 -82.1333 185° South 174 200 9,000  Level Tampa TRACON
11:33AM 28.6333 -82.1333 180° South 173 199 9,000  Level Tampa TRACON
11:34AM 28.5833 -82.1167 164° South 179 206 9,000  Level Tampa TRACON
11:35AM 28.5333 -82.1167 180° South 179 206 9,000  Level Tampa TRACON
11:36AM 28.4833 -82.1000 164° South 178 205 9,000  Level Tampa TRACON
11:37AM 28.4333 -82.1000 180° South 177 204 9,000  Level Tampa TRACON
11:38AM 28.3833 -82.0833 164° South 176 203 9,000  Level Tampa TRACON
11:39AM 28.3333 -82.0833 180° South 179 206 9,000  Level Tampa TRACON
11:40AM 28.2833 -82.0667 164° South 176 203 9,000  Level Tampa TRACON
11:41AM 28.2333 -82.0667 180° South 178 205 9,000  Level Tampa TRACON
11:42AM 28.1833 -82.0500 164° South 179 206 9,000  Level Tampa TRACON
11:43AM 28.1333 -82.0333 164° South 180 207 9,000  Level Tampa TRACON
11:44AM 28.0833 -82.0333 180° South 183 211 9,000  Level Tampa TRACON
11:45AM 28.0333 -82.0167 164° South 183 211 9,000  Level Tampa TRACON
11:46AM 27.9833 -82.0167 180° South 184 212 9,000  Level Tampa TRACON
11:47AM 27.9333 -82.0167 180° South 180 207 9,000  Level Tampa TRACON
11:49AM 27.8414 -81.9992 170° South 141 162 9,000  Level Miami Center
11:50AM 27.7856 -81.9894 171° South 183 211 9,000  Level Miami Center
11:51AM 27.7397 -81.9806 170° South 189 217 9,000  Level Miami Center
11:52AM 27.6928 -81.9572 156° South 189 217 9,000  Level Miami Center
11:53AM 27.6414 -81.9314 156° South 184 212 9,000  Level Miami Center
11:54AM 27.5964 -81.9083 156° South 189 217 9,000  Level Miami Center
11:55AM 27.5533 -81.8856 155° Southeast 189 217 9,000 -240 Level Miami Center
11:56AM 27.5019 -81.8644 160° South 189 217 8,600 -540 Descending Miami Center
11:57AM 27.4525 -81.8436 159° South 189 217 8,000 -600 Descending Miami Center
11:58AM 27.4033 -81.8181 155° Southeast 189 217 7,400 -600 Descending Miami Center
11:59AM 27.3542 -81.7925 155° Southeast 189 217 6,800 -600 Descending Miami Center
12:00PM 27.3028 -81.7694 158° South 189 217 6,200 -600 Descending Miami Center
12:01PM 27.2533 -81.7439 155° Southeast 189 217 5,600 -600 Descending Miami Center
12:02PM 27.2042 -81.7208 157° South 189 217 5,000 -300 Descending Miami Center
12:03PM 27.1547 -81.6978 157° South 189 217 5,000  Level Miami Center
12:04PM 27.1097 -81.6750 156° South 189 217 5,000  Level Miami Center
12:05PM 27.0667 -81.6522 155° Southeast 184 212 5,000  Level Miami Center
12:06PM 27.0206 -81.6525 180° South 174 200 5,000 -300 Level Miami Center
12:07PM 26.9778 -81.6833 213° Southwest 163 188 4,500 -660 Descending Miami Center
12:08PM 26.9308 -81.7186 214° Southwest 193 222 3,700 -780 Descending Miami Center
12:09PM 26.8817 -81.7517 211° Southwest 206 237 3,000 -360 Descending Miami Center
12:10PM 26.8431 -81.7825 215° Southwest 206 237 3,000  Level Miami Center
12:11PM 26.8022 -81.8133 214° Southwest 190 219 3,000  Level Miami Center
12:12PM 26.7617 -81.8419 212° Southwest 185 213 3,000  Level Miami Center
12:14PM 26.6721 -81.8217 169° South  Level FlightAware Approximate
12:21PM 26.5833 -81.8500 204° Southwest  Level FlightAware Approximate
12:22PM 26.5866 -81.8633 204° Southwest  Level Estimated
12:23PM 26.5866 -81.8633 204° Southwest  Level Estimated
12:24PM 26.5866 -81.8633 204° Southwest  Level Estimated
12:25PM 26.5866 -81.8633 204° Southwest  Level Estimated
12:26PM 26.5866 -81.8633 204° Southwest  Level Estimated
12:27PM 26.5866 -81.8633 204° Southwest  Level Estimated
12:28PM 26.5866 -81.8633 204° Southwest  Level Estimated